createdAt,value
2018-03-23T00:01:44.964Z,2.40
2018-03-23T00:04:14.454Z,2.40
2018-03-23T00:06:42.642Z,2.40
2018-03-23T00:09:11.045Z,2.40
2018-03-23T00:11:41.712Z,2.50
2018-03-23T00:14:09.920Z,2.50
2018-03-23T00:16:39.050Z,2.50
2018-03-23T00:19:08.028Z,2.60
2018-03-23T00:21:38.019Z,2.60
2018-03-23T00:24:07.118Z,2.50
2018-03-23T00:26:35.271Z,2.50
2018-03-23T00:29:03.438Z,2.50
2018-03-23T00:31:31.612Z,2.50
2018-03-23T00:33:59.822Z,2.50
2018-03-23T00:36:27.993Z,2.40
2018-03-23T00:38:56.157Z,2.40
2018-03-23T00:41:24.330Z,2.40
2018-03-23T00:43:54.012Z,2.50
2018-03-23T00:46:22.232Z,2.50
2018-03-23T00:48:50.618Z,2.50
2018-03-23T00:51:18.769Z,2.50
2018-03-23T00:53:47.004Z,2.40
2018-03-23T00:56:15.167Z,2.40
2018-03-23T00:58:43.339Z,2.40
2018-03-23T01:01:11.504Z,2.50
2018-03-23T01:03:40.513Z,2.40
2018-03-23T01:06:08.683Z,2.40
2018-03-23T01:08:36.831Z,2.40
2018-03-23T01:11:04.980Z,2.40
2018-03-23T01:13:38.777Z,2.40
2018-03-23T01:16:06.955Z,2.50
2018-03-23T01:18:35.125Z,2.40
2018-03-23T01:21:04.039Z,2.50
2018-03-23T01:23:32.274Z,2.50
2018-03-23T01:26:00.466Z,2.50
2018-03-23T01:28:28.722Z,2.50
2018-03-23T01:30:56.900Z,2.60
2018-03-23T01:33:25.176Z,2.60
2018-03-23T01:35:53.337Z,2.60
2018-03-23T01:38:22.528Z,2.60
2018-03-23T01:40:51.474Z,2.60
2018-03-23T01:43:19.704Z,2.60
2018-03-23T01:45:47.880Z,2.60
2018-03-23T01:48:16.045Z,2.50
2018-03-23T01:50:44.210Z,2.50
2018-03-23T01:53:24.974Z,2.30
2018-03-23T01:55:53.140Z,2.30
2018-03-23T01:58:21.319Z,2.30
2018-03-23T02:00:50.242Z,2.30
2018-03-23T02:03:19.273Z,2.40
2018-03-23T02:05:47.409Z,2.40
2018-03-23T02:08:15.578Z,2.40
2018-03-23T02:10:43.728Z,2.40
2018-03-23T02:13:16.286Z,2.40
2018-03-23T02:15:49.841Z,2.40
2018-03-23T02:18:22.879Z,2.40
2018-03-23T02:20:55.183Z,2.50
2018-03-23T02:23:27.764Z,2.50
2018-03-23T02:25:55.930Z,2.50
2018-03-23T02:28:24.108Z,2.50
2018-03-23T02:30:52.282Z,2.50
2018-03-23T02:33:21.500Z,2.50
2018-03-23T02:35:49.724Z,2.50
2018-03-23T02:38:17.890Z,2.50
2018-03-23T02:40:46.127Z,2.60
2018-03-23T02:43:15.420Z,2.50
2018-03-23T02:45:43.571Z,2.30
2018-03-23T02:48:11.746Z,2.50
2018-03-23T02:50:39.900Z,2.50
2018-03-23T02:53:09.124Z,2.50
2018-03-23T02:55:37.301Z,2.50
2018-03-23T02:58:05.473Z,2.50
2018-03-23T03:00:34.489Z,2.50
2018-03-23T03:03:08.674Z,2.50
2018-03-23T03:05:37.700Z,2.60
2018-03-23T03:08:05.865Z,2.60
2018-03-23T03:10:34.035Z,2.60
2018-03-23T03:13:04.970Z,2.60
2018-03-23T03:15:33.610Z,2.60
2018-03-23T03:18:01.812Z,2.60
2018-03-23T03:20:29.974Z,2.60
2018-03-23T03:22:58.923Z,2.70
2018-03-23T03:25:27.078Z,2.70
2018-03-23T03:27:55.241Z,2.70
2018-03-23T03:30:23.417Z,2.70
2018-03-23T03:32:53.635Z,2.80
2018-03-23T03:35:21.789Z,2.70
2018-03-23T03:37:50.720Z,2.80
2018-03-23T03:40:18.897Z,2.80
2018-03-23T03:42:50.219Z,2.80
2018-03-23T03:45:23.851Z,2.80
2018-03-23T03:47:52.004Z,2.90
2018-03-23T03:50:20.182Z,2.90
2018-03-23T03:52:49.467Z,2.90
2018-03-23T03:55:17.664Z,2.90
2018-03-23T03:57:46.705Z,2.90
2018-03-23T04:00:14.860Z,2.90
2018-03-23T04:02:43.052Z,2.90
2018-03-23T04:05:11.239Z,2.90
2018-03-23T04:07:39.376Z,2.80
2018-03-23T04:10:07.531Z,2.80
2018-03-23T04:12:35.704Z,2.80
2018-03-23T04:15:03.855Z,2.80
2018-03-23T04:17:32.010Z,2.80
2018-03-23T04:20:00.177Z,2.80
2018-03-23T04:22:29.196Z,2.80
2018-03-23T04:24:57.352Z,2.80
2018-03-23T04:27:27.069Z,2.90
2018-03-23T04:29:55.997Z,2.90
2018-03-23T04:32:24.590Z,2.90
2018-03-23T04:37:33.653Z,2.90
2018-03-23T04:40:02.089Z,2.90
2018-03-23T04:42:30.690Z,2.90
2018-03-23T04:45:00.470Z,3.00
2018-03-23T04:47:28.632Z,3.00
2018-03-23T04:49:58.285Z,3.00
2018-03-23T04:52:26.534Z,3.00
2018-03-23T04:54:54.718Z,3.00
2018-03-23T04:57:23.352Z,3.00
2018-03-23T04:59:51.540Z,3.00
2018-03-23T05:02:22.950Z,3.00
2018-03-23T05:04:51.174Z,2.90
2018-03-23T05:07:19.557Z,2.90
2018-03-23T05:09:48.490Z,2.90
2018-03-23T05:12:21.439Z,2.90
2018-03-23T05:14:49.608Z,2.90
2018-03-23T05:17:19.158Z,2.90
2018-03-23T05:19:47.321Z,3.00
2018-03-23T05:22:15.494Z,3.00
2018-03-23T05:24:44.012Z,3.00
2018-03-23T05:27:12.197Z,3.00
2018-03-23T05:29:41.472Z,3.00
2018-03-23T05:32:11.338Z,3.00
2018-03-23T05:34:40.262Z,3.00
2018-03-23T05:37:10.123Z,3.00
2018-03-23T05:39:38.284Z,3.00
2018-03-23T05:42:06.455Z,3.10
2018-03-23T05:44:34.614Z,3.00
2018-03-23T05:47:02.804Z,3.00
2018-03-23T05:49:30.981Z,3.10
2018-03-23T05:52:00.100Z,3.10
2018-03-23T05:54:28.308Z,3.10
2018-03-23T05:56:56.480Z,3.20
2018-03-23T05:59:24.694Z,3.30
2018-03-23T06:01:52.855Z,3.30
2018-03-23T06:04:21.027Z,3.30
2018-03-23T06:06:49.203Z,3.30
2018-03-23T06:09:18.436Z,3.30
2018-03-23T06:11:46.601Z,3.40
2018-03-23T06:14:14.784Z,3.50
2018-03-23T06:16:42.962Z,3.50
2018-03-23T06:19:11.172Z,3.50
2018-03-23T06:21:39.417Z,3.50
2018-03-23T06:24:07.661Z,3.50
2018-03-23T06:26:35.878Z,3.60
2018-03-23T06:29:04.804Z,3.60
2018-03-23T06:31:32.987Z,3.60
2018-03-23T06:34:02.290Z,3.70
2018-03-23T06:36:30.462Z,3.80
2018-03-23T06:38:58.627Z,3.90
2018-03-23T06:41:26.835Z,4.00
2018-03-23T06:44:00.321Z,4.10
2018-03-23T06:46:28.485Z,4.10
2018-03-23T06:48:57.934Z,4.20
2018-03-23T06:51:26.091Z,4.30
2018-03-23T06:53:56.267Z,4.40
2018-03-23T06:56:24.434Z,4.50
2018-03-23T06:58:52.634Z,4.60
2018-03-23T07:01:20.800Z,4.70
2018-03-23T07:03:48.954Z,4.80
2018-03-23T07:06:17.124Z,4.90
2018-03-23T07:08:45.295Z,4.90
2018-03-23T07:11:13.462Z,5.00
2018-03-23T07:13:41.650Z,5.00
2018-03-23T07:16:09.848Z,5.00
2018-03-23T07:18:38.400Z,5.10
2018-03-23T07:21:06.574Z,5.10
2018-03-23T07:23:34.748Z,5.20
2018-03-23T07:26:02.922Z,5.00
2018-03-23T07:28:31.165Z,4.90
2018-03-23T07:31:00.109Z,4.50
2018-03-23T07:33:28.372Z,4.50
2018-03-23T07:35:56.537Z,4.40
2018-03-23T07:38:24.696Z,4.50
2018-03-23T07:40:53.642Z,4.60
2018-03-23T07:43:21.807Z,4.60
2018-03-23T07:45:50.033Z,4.70
2018-03-23T07:48:18.207Z,4.70
2018-03-23T07:50:48.122Z,4.80
2018-03-23T07:53:17.191Z,4.90
2018-03-23T07:55:45.359Z,4.80
2018-03-23T07:58:16.498Z,4.50
2018-03-23T08:00:44.660Z,4.40
2018-03-23T08:03:12.960Z,4.50
2018-03-23T08:05:41.140Z,4.60
2018-03-23T08:08:09.301Z,4.70
2018-03-23T08:10:37.987Z,4.80
2018-03-23T08:13:06.227Z,4.90
2018-03-23T08:15:34.418Z,4.90
2018-03-23T08:18:02.756Z,5.00
2018-03-23T08:20:31.229Z,5.00
2018-03-23T08:22:59.544Z,5.00
2018-03-23T08:25:27.725Z,5.10
2018-03-23T08:27:55.896Z,5.20
2018-03-23T08:30:24.042Z,5.40
2018-03-23T08:32:52.636Z,5.50
2018-03-23T08:35:20.811Z,5.70
2018-03-23T08:37:48.961Z,5.90
2018-03-23T08:40:17.907Z,6.10
2018-03-23T08:42:46.181Z,6.10
2018-03-23T08:45:14.353Z,6.10
2018-03-23T08:47:43.617Z,6.20
2018-03-23T08:50:12.416Z,6.50
2018-03-23T08:52:40.758Z,6.70
2018-03-23T08:55:12.068Z,6.70
2018-03-23T08:57:40.672Z,6.60
2018-03-23T09:00:10.810Z,6.50
2018-03-23T09:02:39.545Z,6.50
2018-03-23T09:05:07.705Z,6.30
2018-03-23T09:07:35.878Z,6.20
2018-03-23T09:10:04.523Z,6.30
2018-03-23T09:12:34.631Z,6.40
2018-03-23T09:15:03.087Z,6.50
2018-03-23T09:17:32.017Z,7.10
2018-03-23T09:20:01.414Z,7.10
2018-03-23T09:22:30.754Z,6.90
2018-03-23T09:25:00.471Z,6.90
2018-03-23T09:27:28.639Z,7.20
2018-03-23T09:29:57.824Z,7.40
2018-03-23T09:32:26.839Z,7.60
2018-03-23T09:34:56.510Z,7.70
2018-03-23T09:37:26.535Z,7.90
2018-03-23T09:39:55.684Z,7.60
2018-03-23T09:42:23.923Z,7.10
2018-03-23T09:44:52.130Z,7.20
2018-03-23T09:47:21.723Z,7.10
2018-03-23T09:49:52.021Z,6.90
2018-03-23T09:52:24.108Z,6.80
2018-03-23T09:54:53.569Z,6.80
2018-03-23T09:57:22.306Z,7.10
2018-03-23T09:59:50.968Z,7.30
2018-03-23T10:02:21.894Z,7.20
2018-03-23T10:04:50.411Z,7.20
2018-03-23T10:07:18.565Z,7.20
2018-03-23T10:09:48.030Z,7.10
2018-03-23T10:12:17.538Z,7.50
2018-03-23T10:14:46.382Z,7.80
2018-03-23T10:17:15.799Z,8.20
2018-03-23T10:19:44.053Z,8.10
2018-03-23T10:22:20.759Z,8.50
2018-03-23T10:24:48.943Z,8.90
2018-03-23T10:27:17.181Z,9.20
2018-03-23T10:29:45.498Z,9.20
2018-03-23T10:32:34.258Z,8.90
2018-03-23T10:35:04.611Z,8.90
2018-03-23T10:37:32.762Z,8.90
2018-03-23T10:40:00.907Z,9.20
2018-03-23T10:42:31.031Z,9.80
2018-03-23T10:44:59.417Z,9.90
2018-03-23T10:47:29.643Z,10.20
2018-03-23T10:50:06.658Z,10.50
2018-03-23T10:52:38.796Z,10.80
2018-03-23T10:55:06.944Z,11.00
2018-03-23T10:57:35.228Z,10.90
2018-03-23T11:00:04.975Z,10.90
2018-03-23T11:02:43.611Z,10.90
2018-03-23T11:05:11.801Z,10.60
2018-03-23T11:07:46.001Z,10.10
2018-03-23T11:10:14.198Z,9.70
2018-03-23T11:12:44.127Z,9.40
2018-03-23T11:15:12.535Z,8.60
2018-03-23T11:17:40.733Z,8.40
2018-03-23T11:20:09.553Z,8.10
2018-03-23T11:22:37.855Z,7.90
2018-03-23T11:25:06.333Z,7.70
2018-03-23T11:27:34.537Z,7.60
2018-03-23T11:30:02.696Z,7.50
2018-03-23T11:32:36.741Z,7.30
2018-03-23T11:35:06.521Z,7.30
2018-03-23T11:37:34.681Z,7.30
2018-03-23T11:40:05.093Z,7.40
2018-03-23T11:42:33.325Z,7.50
2018-03-23T11:45:01.502Z,7.80
2018-03-23T11:47:29.658Z,8.20
2018-03-23T11:49:57.839Z,8.70
2018-03-23T11:52:28.099Z,9.00
2018-03-23T11:54:56.650Z,9.40
2018-03-23T11:57:24.878Z,9.30
2018-03-23T11:59:53.026Z,9.20
2018-03-23T12:02:23.673Z,9.10
2018-03-23T12:04:51.841Z,9.10
2018-03-23T12:07:20.830Z,9.20
2018-03-23T12:09:49.054Z,9.20
2018-03-23T12:12:19.361Z,9.00
2018-03-23T12:14:47.513Z,9.10
2018-03-23T12:17:16.748Z,9.20
2018-03-23T12:19:44.901Z,9.20
2018-03-23T12:22:14.110Z,9.10
2018-03-23T12:24:42.270Z,9.10
2018-03-23T12:27:10.573Z,9.20
2018-03-23T12:29:39.563Z,9.50
2018-03-23T12:32:07.804Z,9.40
2018-03-23T12:34:35.952Z,9.50
2018-03-23T12:37:04.579Z,9.50
2018-03-23T12:39:32.761Z,9.40
2018-03-23T12:42:01.866Z,9.30
2018-03-23T12:44:30.086Z,9.20
2018-03-23T12:46:58.239Z,8.50
2018-03-23T12:49:26.423Z,7.80
2018-03-23T12:51:57.122Z,7.40
2018-03-23T12:54:25.258Z,6.80
2018-03-23T12:56:54.732Z,6.60
2018-03-23T12:59:22.899Z,6.50
2018-03-23T13:01:51.125Z,6.50
2018-03-23T13:04:20.199Z,6.30
2018-03-23T13:06:48.365Z,6.10
2018-03-23T13:09:16.541Z,6.10
2018-03-23T13:11:44.705Z,6.10
2018-03-23T13:14:12.874Z,6.20
2018-03-23T13:16:41.894Z,6.20
2018-03-23T13:19:11.801Z,6.30
2018-03-23T13:21:40.716Z,6.60
2018-03-23T13:24:08.873Z,6.60
2018-03-23T13:26:38.731Z,7.20
2018-03-23T13:29:06.940Z,7.10
2018-03-23T13:31:35.185Z,7.40
2018-03-23T13:34:03.389Z,7.60
2018-03-23T13:36:31.621Z,7.90
2018-03-23T13:38:59.792Z,8.10
2018-03-23T13:41:28.111Z,8.30
2018-03-23T13:43:57.235Z,8.60
2018-03-23T13:46:26.150Z,8.80
2018-03-23T13:48:54.566Z,8.70
2018-03-23T13:51:22.721Z,8.80
2018-03-23T13:53:51.119Z,8.90
2018-03-23T13:56:19.302Z,8.90
2018-03-23T13:58:53.879Z,9.00
2018-03-23T14:01:28.198Z,9.10
2018-03-23T14:03:57.655Z,9.20
2018-03-23T14:06:26.340Z,9.30
2018-03-23T14:08:54.661Z,9.30
2018-03-23T14:11:23.205Z,9.40
2018-03-23T14:13:51.356Z,9.40
2018-03-23T14:16:19.503Z,9.60
2018-03-23T14:18:48.024Z,9.70
2018-03-23T14:21:17.586Z,9.70
2018-03-23T14:23:46.346Z,9.70
2018-03-23T14:26:16.268Z,9.80
2018-03-23T14:28:44.416Z,9.80
2018-03-23T14:31:12.561Z,9.90
2018-03-23T14:33:40.823Z,10.00
2018-03-23T14:36:08.998Z,10.20
2018-03-23T14:38:37.169Z,10.20
2018-03-23T14:41:05.572Z,10.00
2018-03-23T14:43:33.736Z,9.60
2018-03-23T14:46:01.901Z,9.40
2018-03-23T14:48:30.048Z,9.30
2018-03-23T14:50:58.223Z,9.10
2018-03-23T14:53:26.430Z,9.00
2018-03-23T14:55:54.751Z,8.90
2018-03-23T14:58:22.964Z,8.80
2018-03-23T15:00:51.161Z,8.90
2018-03-23T15:03:20.656Z,8.90
2018-03-23T15:05:48.816Z,8.90
2018-03-23T15:08:16.972Z,8.90
2018-03-23T15:10:46.046Z,9.40
2018-03-23T15:13:14.242Z,9.30
2018-03-23T15:15:42.421Z,9.70
2018-03-23T15:18:10.586Z,9.90
2018-03-23T15:20:39.084Z,10.20
2018-03-23T15:23:09.380Z,10.90
2018-03-23T15:25:37.766Z,11.00
2018-03-23T15:28:06.842Z,11.20
2018-03-23T15:30:36.123Z,11.10
2018-03-23T15:33:06.227Z,11.00
2018-03-23T15:35:34.393Z,10.70
2018-03-23T15:38:03.457Z,10.50
2018-03-23T15:40:31.668Z,10.30
2018-03-23T15:42:59.930Z,10.00
2018-03-23T15:45:28.185Z,9.80
2018-03-23T15:47:56.382Z,9.60
2018-03-23T15:50:25.300Z,9.30
2018-03-23T15:52:56.435Z,9.30
2018-03-23T15:55:24.596Z,9.30
2018-03-23T15:57:53.218Z,9.30
2018-03-23T16:00:21.685Z,9.30
2018-03-23T16:02:49.890Z,9.20
2018-03-23T16:05:21.062Z,9.10
2018-03-23T16:07:49.226Z,9.10
2018-03-23T16:10:17.379Z,9.10
2018-03-23T16:12:46.197Z,9.20
2018-03-23T16:15:14.415Z,9.20
2018-03-23T16:17:42.620Z,9.30
2018-03-23T16:20:11.560Z,8.90
2018-03-23T16:22:44.232Z,8.90
2018-03-23T16:25:12.408Z,8.80
2018-03-23T16:27:41.011Z,8.60
2018-03-23T16:30:09.165Z,8.40
2018-03-23T16:32:37.342Z,8.20
2018-03-23T16:35:07.106Z,8.00
2018-03-23T16:37:35.254Z,7.90
2018-03-23T16:40:04.218Z,7.70
2018-03-23T16:42:36.031Z,7.60
2018-03-23T16:45:04.374Z,7.50
2018-03-23T16:47:32.634Z,7.40
2018-03-23T16:50:01.268Z,7.30
2018-03-23T16:52:39.174Z,7.30
2018-03-23T16:55:08.089Z,7.30
2018-03-23T16:57:36.316Z,7.30
2018-03-23T17:00:04.497Z,7.20
2018-03-23T17:02:32.657Z,7.20
2018-03-23T17:05:00.852Z,7.10
2018-03-23T17:07:29.008Z,7.20
2018-03-23T17:09:57.158Z,7.20
2018-03-23T17:12:29.243Z,7.30
2018-03-23T17:14:59.549Z,7.30
2018-03-23T17:17:29.104Z,7.20
2018-03-23T17:19:58.715Z,7.10
2018-03-23T17:22:28.892Z,7.10
2018-03-23T17:24:57.546Z,7.10
2018-03-23T17:27:25.714Z,7.10
2018-03-23T17:29:55.243Z,7.10
2018-03-23T17:32:28.347Z,7.10
2018-03-23T17:34:58.973Z,7.10
2018-03-23T17:37:29.985Z,7.00
2018-03-23T17:39:58.145Z,6.90
2018-03-23T17:42:32.694Z,6.80
2018-03-23T17:45:02.343Z,6.80
2018-03-23T17:47:33.288Z,6.80
2018-03-23T17:50:01.469Z,6.80
2018-03-23T17:52:35.796Z,6.70
2018-03-23T17:55:04.740Z,6.60
2018-03-23T17:57:34.540Z,6.60
2018-03-23T18:00:02.715Z,6.60
2018-03-23T18:02:31.205Z,6.60
2018-03-23T18:05:00.278Z,6.70
2018-03-23T18:07:34.091Z,6.40
2018-03-23T18:10:03.626Z,6.40
2018-03-23T18:12:31.887Z,6.30
2018-03-23T18:15:00.057Z,6.20
2018-03-23T18:17:30.719Z,6.10
2018-03-23T18:19:58.910Z,5.90
2018-03-23T18:22:33.131Z,5.90
2018-03-23T18:25:02.423Z,5.70
2018-03-23T18:27:31.888Z,5.70
2018-03-23T18:30:01.483Z,5.70
2018-03-23T18:32:30.786Z,5.70
2018-03-23T18:34:59.983Z,5.70
2018-03-23T18:37:28.218Z,5.80
2018-03-23T18:39:56.370Z,5.90
2018-03-23T18:42:25.536Z,5.80
2018-03-23T18:44:53.721Z,5.80
2018-03-23T18:47:22.764Z,5.60
2018-03-23T18:49:52.295Z,5.50
2018-03-23T18:52:28.083Z,5.50
2018-03-23T18:54:57.625Z,5.50
2018-03-23T18:57:25.766Z,5.50
2018-03-23T18:59:54.755Z,5.50
2018-03-23T19:02:26.260Z,5.50
2018-03-23T19:04:54.419Z,5.50
2018-03-23T19:07:22.895Z,5.50
2018-03-23T19:09:51.557Z,5.40
2018-03-23T19:12:19.779Z,5.30
2018-03-23T19:14:49.587Z,5.20
2018-03-23T19:17:18.548Z,5.10
2018-03-23T19:19:46.690Z,4.80
2018-03-23T19:22:17.086Z,4.50
2018-03-23T19:24:45.993Z,4.50
2018-03-23T19:27:14.177Z,4.40
2018-03-23T19:29:43.127Z,4.50
2018-03-23T19:32:12.140Z,4.60
2018-03-23T19:34:41.094Z,4.60
2018-03-23T19:37:09.242Z,4.60
2018-03-23T19:39:37.413Z,4.60
2018-03-23T19:42:06.782Z,4.60
2018-03-23T19:44:35.690Z,4.40
2018-03-23T19:47:03.892Z,4.40
2018-03-23T19:49:32.044Z,4.40
2018-03-23T19:52:00.198Z,4.30
2018-03-23T19:54:28.365Z,4.20
2018-03-23T19:56:58.063Z,3.80
2018-03-23T19:59:26.989Z,3.80
2018-03-23T20:01:56.208Z,3.80
2018-03-23T20:04:25.587Z,3.80
2018-03-23T20:06:53.775Z,3.70
2018-03-23T20:09:22.707Z,3.60
2018-03-23T20:11:50.883Z,3.60
2018-03-23T20:14:20.194Z,3.60
2018-03-23T20:16:50.841Z,3.50
2018-03-23T20:19:19.039Z,3.60
2018-03-23T20:21:47.777Z,3.50
2018-03-23T20:24:25.496Z,3.40
2018-03-23T20:26:53.966Z,3.30
2018-03-23T20:29:22.908Z,3.30
2018-03-23T20:31:56.979Z,3.20
2018-03-23T20:34:26.192Z,3.00
2018-03-23T20:36:55.244Z,2.80
2018-03-23T20:39:27.130Z,2.70
2018-03-23T20:41:55.293Z,2.70
2018-03-23T20:44:23.489Z,2.50
2018-03-23T20:46:51.694Z,2.40
2018-03-23T20:49:20.168Z,2.40
2018-03-23T20:51:48.960Z,2.30
2018-03-23T20:54:18.605Z,2.20
2018-03-23T20:56:46.780Z,2.10
2018-03-23T20:59:15.589Z,2.00
2018-03-23T21:01:44.584Z,2.00
2018-03-23T21:04:12.759Z,2.00
2018-03-23T21:06:41.020Z,1.90
2018-03-23T21:09:10.563Z,1.90
2018-03-23T21:11:38.765Z,1.90
2018-03-23T21:14:07.318Z,1.80
2018-03-23T21:16:35.521Z,1.70
2018-03-23T21:19:03.685Z,1.60
2018-03-23T21:21:31.903Z,1.60
2018-03-23T21:24:00.083Z,1.60
2018-03-23T21:26:28.254Z,1.70
2018-03-23T21:28:56.696Z,1.70
2018-03-23T21:31:25.591Z,1.60
2018-03-23T21:33:53.806Z,1.50
2018-03-23T21:36:24.538Z,1.60
2018-03-23T21:38:52.716Z,1.60
2018-03-23T21:41:20.876Z,1.70
2018-03-23T21:43:52.708Z,1.80
2018-03-23T21:46:20.864Z,1.80
2018-03-23T21:48:50.924Z,1.90
2018-03-23T21:51:19.089Z,1.90
2018-03-23T21:53:47.338Z,1.80
2018-03-23T21:56:16.314Z,1.70
2018-03-23T21:58:44.498Z,1.70
2018-03-23T22:01:12.696Z,1.70
2018-03-23T22:03:44.893Z,1.90
2018-03-23T22:06:13.064Z,1.80
2018-03-23T22:08:41.683Z,1.80
2018-03-23T22:11:10.709Z,1.80
2018-03-23T22:13:42.869Z,1.60
2018-03-23T22:16:14.422Z,1.60
2018-03-23T22:18:42.631Z,1.60
2018-03-23T22:21:14.015Z,1.60
2018-03-23T22:23:43.028Z,1.60
2018-03-23T22:26:12.244Z,1.60
2018-03-23T22:28:41.521Z,1.50
2018-03-23T22:31:09.705Z,1.60
2018-03-23T22:33:38.715Z,1.70
2018-03-23T22:36:07.289Z,1.70
2018-03-23T22:38:35.471Z,1.80
2018-03-23T22:41:06.975Z,1.80
2018-03-23T22:43:38.472Z,1.80
2018-03-23T22:46:12.783Z,1.80
2018-03-23T22:48:40.940Z,1.80
2018-03-23T22:51:10.915Z,1.80
2018-03-23T22:53:39.178Z,1.80
2018-03-23T22:56:07.359Z,1.80
2018-03-23T22:58:37.078Z,1.70
2018-03-23T23:01:05.537Z,1.70
2018-03-23T23:03:38.499Z,1.70
2018-03-23T23:06:07.737Z,1.70
2018-03-23T23:08:35.908Z,1.70
2018-03-23T23:11:10.670Z,1.70
2018-03-23T23:13:48.124Z,1.50
2018-03-23T23:16:16.366Z,1.50
2018-03-23T23:18:45.346Z,1.30
2018-03-23T23:21:15.388Z,1.10
2018-03-23T23:23:44.045Z,1.20
2018-03-23T23:26:13.189Z,1.20
2018-03-23T23:28:42.638Z,1.10
2018-03-23T23:31:10.994Z,1.10
2018-03-23T23:33:43.206Z,1.00
2018-03-23T23:36:11.428Z,0.80
2018-03-23T23:38:47.617Z,0.70
2018-03-23T23:41:16.597Z,0.70
2018-03-23T23:43:45.793Z,0.60
2018-03-23T23:46:16.054Z,0.60
2018-03-23T23:48:45.088Z,0.70
2018-03-23T23:51:13.276Z,0.70
2018-03-23T23:53:42.172Z,0.60
2018-03-23T23:56:11.287Z,0.60
2018-03-23T23:58:40.517Z,0.50
